Terminal Aerodrome Forecast
Issued by NWS

Home | Current Version | Previous Version | Text Only | Print | Product List | Glossary On
Versions: 1 2 3 4 5 6 7 8 9 10 11 12 13 14 15 16 17
000
FTUS43 KSGF 240500
TAFJLN
TAF
KJLN 240527Z 2406/2506 23006KT P6SM BKN120
     FM241100 26005KT P6SM SCT120
     FM241300 28006KT P6SM SCT006
     FM241600 25010G15KT P6SM SCT250
     FM250000 22012KT P6SM BKN250 WS020/27040KT=

USA.gov is the U.S. government's official web portal to all federal, state and local government web resources and services.